Latest Weather Observations for Smithton

IDT60801

Issued at 7:31 am EDT Tuesday 3 March 2015 (issued every 30 minutes, with the page automatically refreshed every 10 minutes)

About weather observations | Map of weather stations | Latest weather observations for TAS | Other Formats
Station Details ID: 091292 Name: SMITHTON AERODROME Lat: -40.83 Lon: 145.08 Height: 7.5 m
Data from the previous 72 hours. | See also: Recent months at Smithton
Date/Time
EDT
Temp
°C
App
Temp
°C
Dew
Point
Rel
Hum
%
Delta-T
°C
Wind Press
QNH
hPa
Press
MSL
hPa
Rain
since 9 am
mm
Dir
 
Spd
km/h
Gust
km/h
Spd
kts
Gust
kts
03/07:30am 10.5 8.5 10.3 99 0.1 SSW 11 13 6 7 1015.2 - 0.0
03/07:00am 8.9 6.9 8.8 99 0.0 S 9 13 5 7 1015.3 - 0.0
03/06:30am 8.5 8.1 8.4 99 0.0 CALM 0 4 0 2 1014.9 - 0.0
03/06:00am 8.9 6.9 8.8 99 0.0 S 9 11 5 6 1014.7 1014.7 0.0
03/05:30am 8.3 7.9 8.2 99 0.0 CALM 0 0 0 0 1014.7 - 0.0
03/05:00am 8.4 6.9 8.3 99 0.0 S 6 7 3 4 1014.7 - 0.0
03/04:30am 8.1 5.6 8.0 99 0.0 S 11 13 6 7 1014.7 - 0.0
03/04:00am 5.3 4.2 5.2 99 0.0 CALM 0 0 0 0 1014.5 - 0.0
03/03:30am 5.7 4.7 5.6 99 0.0 CALM 0 0 0 0 1014.3 - 0.0
03/03:00am 5.3 3.8 4.9 97 0.2 SSW 2 6 1 3 1014.3 1014.3 0.0
03/02:30am 6.7 4.7 6.3 97 0.2 SSW 6 7 3 4 1014.6 - 0.0
03/02:00am 7.8 6.1 7.5 98 0.1 SSW 6 7 3 4 1015.1 - 0.0
03/01:30am 8.1 5.9 7.7 97 0.2 SSW 9 11 5 6 1015.2 - 0.0
03/01:00am 8.8 7.0 8.0 95 0.4 SSW 7 9 4 5 1015.2 - 0.0
03/12:30am 10.1 9.9 9.0 93 0.5 CALM 0 0 0 0 1015.6 - 0.0
03/12:00am 10.9 10.5 9.8 93 0.6 SSW 2 6 1 3 1015.8 1015.8 0.0
 
Date/Time
EDT
Temp
°C
App
Temp
°C
Dew
Point
Rel
Hum
%
Delta-T
°C
Wind Press
QNH
hPa
Press
MSL
hPa
Rain
since 9 am
mm
Dir
 
Spd
km/h
Gust
km/h
Spd
kts
Gust
kts
02/11:30pm 10.5 9.3 9.7 95 0.4 W 6 13 3 7 1015.9 - 0.0
02/11:00pm 9.5 9.1 8.3 92 0.6 CALM 0 2 0 1 1016.0 - 0.0
02/10:30pm 9.9 9.5 8.2 89 0.8 CALM 0 0 0 0 1016.2 - 0.0
02/10:00pm 10.9 10.7 9.0 88 0.9 CALM 0 0 0 0 1016.4 - 0.0
02/09:30pm 11.0 10.7 8.6 85 1.2 CALM 0 0 0 0 1016.3 - 0.0
02/09:00pm 12.7 11.5 9.5 81 1.6 W 6 6 3 3 1015.9 1015.9 0.0
02/08:30pm 13.6 12.4 9.5 76 2.1 W 6 7 3 4 1015.8 - 0.0
02/08:00pm 14.2 12.8 9.6 74 2.4 W 7 11 4 6 1015.4 - 0.0
02/07:30pm 14.4 12.3 9.6 73 2.5 W 11 13 6 7 1015.4 - 0.0
02/07:00pm 14.9 12.0 9.7 71 2.7 WNW 15 19 8 10 1015.2 - 0.0
02/06:30pm 15.4 12.0 9.1 66 3.2 NW 17 22 9 12 1015.0 - 0.0
02/06:00pm 15.6 12.2 9.1 65 3.3 NW 17 20 9 11 1014.6 1014.6 0.0
02/05:30pm 15.9 12.5 9.1 64 3.5 NW 17 20 9 11 1014.6 - 0.0
02/05:00pm 15.9 12.1 8.9 63 3.6 NW 19 24 10 13 1014.6 - 0.0
02/04:30pm 16.7 12.2 8.7 59 4.1 NW 22 30 12 16 1015.0 - 0.0
02/04:00pm 17.5 13.7 8.9 57 4.5 NW 19 26 10 14 1014.8 - 0.0
02/03:30pm 18.0 13.9 8.6 54 4.9 NNW 20 30 11 16 1015.0 - 0.0
02/03:00pm 18.4 14.1 9.5 56 4.7 NW 22 30 12 16 1015.6 1015.6 0.0
02/02:30pm 18.4 16.3 9.7 57 4.6 NW 11 22 6 12 1015.9 - 0.0
02/02:00pm 18.4 15.8 7.8 50 5.4 WSW 11 17 6 9 1016.0 - 0.0
02/01:30pm 18.1 16.0 8.1 52 5.1 NW 9 19 5 10 1016.5 - 0.0
02/01:00pm 17.8 14.4 7.8 52 5.1 WNW 15 20 8 11 1017.0 - 0.0
02/12:30pm 16.8 14.1 7.4 54 4.7 WSW 11 19 6 10 1017.3 - 0.0
02/12:00pm 16.2 13.1 7.4 56 4.4 WNW 13 20 7 11 1017.7 1017.7 0.0
02/11:30am 15.5 13.2 7.5 59 4.0 WSW 9 15 5 8 1017.9 - 0.0
02/11:00am 15.1 11.3 7.4 60 3.8 SW 17 20 9 11 1018.3 - 0.0
02/10:30am 13.9 10.4 7.0 63 3.4 WSW 15 20 8 11 1018.7 - 0.0
02/10:00am 12.3 9.6 7.2 71 2.5 S 11 15 6 8 1018.7 - 0.0
02/09:30am 11.3 8.1 7.0 75 2.0 S 13 17 7 9 1018.2 - 0.0
02/09:00am 9.9 6.6 6.4 79 1.6 S 13 17 7 9 1018.1 1018.1 0.0
02/08:30am 8.3 5.0 6.6 89 0.8 S 13 17 7 9 1018.3 - 0.0
02/08:00am 6.4 2.8 5.0 91 0.6 S 13 15 7 8 1018.0 - 0.0
02/07:30am 4.8 1.0 4.1 95 0.3 S 13 15 7 8 1017.8 - 0.0
02/07:00am 3.5 -1.0 2.3 92 0.5 SSW 15 17 8 9 1017.6 - 0.0
02/06:30am 4.4 -0.3 3.2 92 0.5 SSW 17 20 9 11 1017.6 - 0.0
02/06:00am 3.5 -1.3 2.5 93 0.4 SSW 17 17 9 9 1017.3 1017.3 0.0
02/05:30am 4.5 0.2 3.3 92 0.5 SSW 15 17 8 9 1017.3 - 0.0
02/05:00am 4.0 -0.1 2.5 90 0.6 SSW 13 15 7 8 1017.4 - 0.0
02/04:30am 4.8 0.5 3.3 90 0.6 SSW 15 15 8 8 1017.8 - 0.0
02/04:00am 5.1 0.4 3.4 89 0.7 SSW 17 17 9 9 1017.9 - 0.0
02/03:30am 5.5 1.3 3.8 89 0.7 SSW 15 19 8 10 1018.1 - 0.0
02/03:00am 4.4 0.0 2.9 90 0.6 SSW 15 17 8 9 1018.1 1018.1 0.0
02/02:30am 5.8 2.5 4.4 91 0.6 SSW 11 15 6 8 1018.4 - 0.0
02/02:00am 5.5 0.6 4.0 90 0.6 SSW 19 20 10 11 1017.9 - 0.0
02/01:30am 5.2 0.7 4.0 92 0.5 SSW 17 17 9 9 1017.8 - 0.0
02/01:00am 4.5 1.0 3.6 94 0.4 SSW 11 13 6 7 1017.7 - 0.0
02/12:30am 6.0 2.3 4.5 90 0.6 SSW 13 15 7 8 1017.9 - 0.0
02/12:00am 5.6 1.9 4.4 92 0.5 SSW 13 15 7 8 1017.9 1017.9 0.0
 
Date/Time
EDT
Temp
°C
App
Temp
°C
Dew
Point
Rel
Hum
%
Delta-T
°C
Wind Press
QNH
hPa
Press
MSL
hPa
Rain
since 9 am
mm
Dir
 
Spd
km/h
Gust
km/h
Spd
kts
Gust
kts
01/11:30pm 6.2 5.0 4.7 90 0.6 CALM 0 0 0 0 1018.3 - 0.0
01/11:00pm 7.7 6.8 6.0 89 0.8 CALM 0 6 0 3 1018.3 - 0.0
01/10:30pm 7.6 4.5 5.4 86 1.0 SSW 11 13 6 7 1018.2 - 0.0
01/10:00pm 7.8 4.3 5.6 86 1.0 SSW 13 15 7 8 1018.3 - 0.0
01/09:30pm 8.6 4.5 6.2 85 1.1 SSW 17 17 9 9 1018.3 - 0.0
01/09:00pm 9.9 6.6 6.4 79 1.6 S 13 15 7 8 1017.8 1017.8 0.0
01/08:30pm 11.3 7.3 6.8 74 2.1 SSW 17 22 9 12 1017.4 - 0.0
01/08:00pm 12.1 7.6 6.8 70 2.5 SSW 20 26 11 14 1017.0 - 0.0
01/07:30pm 13.9 8.6 7.0 63 3.4 SSW 24 30 13 16 1016.6 - 0.0
01/07:00pm 15.7 10.2 7.5 58 4.1 SSW 26 35 14 19 1016.3 - 0.0
01/06:30pm 15.6 10.2 8.1 61 3.8 SSW 26 35 14 19 1015.8 - 0.0
01/06:00pm 15.8 9.1 7.3 57 4.2 SSW 32 41 17 22 1015.4 1015.4 0.0
01/05:30pm 16.9 11.3 8.6 58 4.3 SSW 28 41 15 22 1015.0 - 0.0
01/05:00pm 17.1 10.7 8.5 57 4.4 SSW 32 41 17 22 1014.6 - 0.0
01/04:30pm 18.5 12.2 9.6 56 4.7 SSW 33 43 18 23 1014.4 - 0.0
01/04:00pm 16.8 9.9 9.0 60 4.0 SSW 35 44 19 24 1014.2 - 0.0
01/03:56pm 16.8 9.6 9.0 60 4.0 SSW 37 46 20 25 1014.1 - 0.0
01/03:30pm 18.9 11.8 9.4 54 5.0 SW 37 48 20 26 1013.7 - 0.0
01/03:00pm 18.0 11.8 11.3 65 3.6 SW 35 48 19 26 1013.4 1013.4 0.0
01/02:30pm 17.1 9.6 10.9 67 3.3 WSW 41 54 22 29 1013.3 - 0.0
01/02:17pm 18.6 12.4 11.4 63 3.9 SW 35 54 19 29 1013.1 - 0.0
01/02:00pm 18.7 11.3 9.8 56 4.7 SW 39 54 21 29 1012.7 - 0.0
01/01:30pm 18.6 11.7 10.4 59 4.4 SW 37 46 20 25 1012.5 - 0.0
01/01:00pm 18.6 10.5 8.8 53 5.1 WSW 41 59 22 32 1012.6 - 0.0
01/12:47pm 18.4 11.1 8.9 54 4.9 SW 37 57 20 31 1012.3 - 0.0
01/12:30pm 17.7 10.7 9.8 60 4.2 SW 37 50 20 27 1012.4 - 0.0
01/12:02pm 17.6 10.6 10.0 61 4.0 SW 37 57 20 31 1011.9 - 0.0
01/12:00pm 17.8 10.9 10.2 61 4.0 SW 37 52 20 28 1011.9 1011.9 0.0
01/11:45am 17.2 10.2 9.9 62 3.8 SW 37 56 20 30 1011.8 - 0.0
01/11:30am 18.5 12.1 10.6 60 4.3 SW 35 48 19 26 1011.7 - 0.0
01/11:23am 17.7 10.6 9.6 59 4.3 SW 37 56 20 30 1011.5 - 0.0
01/11:00am 17.3 10.1 10.4 64 3.7 SW 39 54 21 29 1011.2 - 0.0
01/10:30am 17.0 11.1 11.3 69 3.1 SW 33 46 18 25 1010.6 - 0.0
01/10:00am 15.7 9.5 10.2 70 2.9 SW 33 44 18 24 1010.1 - 0.0
01/09:45am 16.6 10.9 11.1 70 3.0 SW 32 50 17 27 1009.7 - 0.0
01/09:30am 16.4 11.8 12.2 76 2.3 SW 28 43 15 23 1009.6 - 0.0
01/09:00am 15.2 11.3 12.1 82 1.7 SW 24 33 13 18 1009.1 1009.1 2.2
01/08:30am 14.1 9.6 11.3 83 1.5 SW 26 35 14 19 1008.7 - 2.2
01/08:00am 13.7 10.1 11.7 88 1.1 WSW 22 37 12 20 1008.3 - 2.2
01/07:30am 11.7 9.2 11.2 97 0.3 WSW 15 17 8 9 1007.7 - 2.2
01/07:00am 11.2 8.5 10.3 94 0.5 WSW 15 19 8 10 1007.1 - 2.2
01/06:30am 12.3 9.5 11.2 93 0.6 SW 17 20 9 11 1006.6 - 2.2
01/06:00am 12.4 9.1 11.0 91 0.7 SW 19 26 10 14 1006.0 1006.0 2.2
01/05:30am 12.4 8.8 10.5 88 1.0 SW 20 26 11 14 1005.7 - 2.2
01/05:00am 12.8 8.5 10.9 88 1.0 SW 24 35 13 19 1005.2 - 2.2
01/04:30am 12.3 8.7 10.4 88 1.0 SW 20 26 11 14 1004.9 - 2.2
01/04:00am 12.5 8.2 10.7 89 0.9 SW 24 30 13 16 1004.7 - 2.2
01/03:30am 12.9 8.6 10.6 86 1.2 SW 24 32 13 17 1004.6 - 2.2
01/03:00am 12.5 8.8 10.2 86 1.2 SW 20 24 11 13 1004.7 1004.7 2.2
01/02:30am 13.0 9.4 10.5 85 1.3 SW 20 28 11 15 1004.7 - 2.2
01/02:00am 13.3 9.8 10.8 85 1.3 SW 20 28 11 15 1004.6 - 2.2
01/01:30am 14.2 11.2 11.9 86 1.2 WSW 19 24 10 13 1004.6 - 2.2
01/01:00am 14.4 12.3 12.4 88 1.1 SW 15 20 8 11 1004.4 - 2.2
01/12:30am 14.5 11.7 12.7 89 1.0 SW 19 24 10 13 1004.4 - 2.2
01/12:00am 14.6 11.7 12.8 89 1.0 SW 20 28 11 15 1004.4 1004.4 2.2
 
Date/Time
EDT
Temp
°C
App
Temp
°C
Dew
Point
Rel
Hum
%
Delta-T
°C
Wind Press
QNH
hPa
Press
MSL
hPa
Rain
since 9 am
mm
Dir
 
Spd
km/h
Gust
km/h
Spd
kts
Gust
kts
28/11:30pm 14.8 12.1 12.8 88 1.1 WSW 19 24 10 13 1004.3 - 2.2
28/11:00pm 15.2 12.5 13.6 90 0.9 WSW 20 26 11 14 1004.4 - 2.2
28/10:30pm 15.5 13.2 14.0 91 0.8 SW 19 26 10 14 1004.1 - 2.2
28/10:00pm 15.8 13.6 14.5 92 0.7 WSW 19 28 10 15 1003.9 - 2.2
28/09:30pm 16.3 15.2 15.3 94 0.6 W 15 19 8 10 1003.5 - 2.2
28/09:00pm 17.0 15.8 16.2 95 0.5 W 17 24 9 13 1002.7 1002.6 2.2
28/08:30pm 17.3 15.5 16.0 92 0.8 W 20 28 11 15 1002.0 - 2.2
28/08:00pm 17.9 17.5 17.1 95 0.5 W 15 20 8 11 1000.8 - 2.2
28/07:30pm 18.2 18.8 17.6 96 0.4 W 11 15 6 8 1000.9 - 2.2
28/07:00pm 18.4 17.9 17.8 96 0.4 WNW 17 22 9 12 1001.0 - 2.0
28/06:30pm 18.6 17.7 17.8 95 0.5 W 19 24 10 13 1001.2 - 1.6
28/06:00pm 19.0 17.9 17.3 90 1.0 W 19 26 10 14 1000.6 1000.5 0.8
28/05:30pm 19.6 18.5 17.2 86 1.5 WNW 19 26 10 14 1001.0 - 0.8
28/05:00pm 20.1 18.1 17.5 85 1.6 WNW 24 32 13 17 1001.1 - 0.6
28/04:30pm 19.7 18.2 17.7 88 1.2 NW 22 32 12 17 1001.4 - 0.6
28/04:00pm 19.4 20.3 18.4 94 0.6 N 11 17 6 9 1001.6 - 0.6
28/03:30pm 18.5 18.8 18.0 97 0.3 ENE 13 17 7 9 1001.8 - 0.6
28/03:00pm 18.3 18.6 17.8 97 0.3 ENE 13 17 7 9 1002.3 1002.2 0.2
28/02:30pm 18.3 17.5 18.0 98 0.2 ENE 19 24 10 13 1002.4 - 0.2
28/02:00pm 18.2 17.4 18.0 99 0.1 ENE 19 24 10 13 1002.6 - 0.2
28/01:30pm 17.8 16.5 17.3 97 0.3 NE 20 28 11 15 1003.2 - 0.2
28/01:00pm 17.7 15.7 16.4 92 0.8 ENE 22 30 12 16 1003.6 - 0.0
28/12:30pm 17.5 15.2 15.7 89 1.1 NE 22 33 12 18 1004.0 - 0.0
28/12:00pm 17.4 15.4 15.0 86 1.4 ENE 19 24 10 13 1004.4 1004.3 0.0
28/11:30am 17.4 15.0 14.3 82 1.8 NE 20 26 11 14 1004.8 - 0.0
28/11:00am 17.5 14.1 13.6 78 2.2 NE 24 32 13 17 1004.9 - 0.0
28/10:30am 17.3 14.1 13.2 77 2.3 NE 22 32 12 17 1005.1 - 0.0
28/10:00am 17.1 14.2 13.0 77 2.3 NE 20 26 11 14 1005.7 - 0.0
28/09:30am 16.6 13.2 12.6 77 2.2 NE 22 28 12 15 1005.7 - 0.0
28/09:00am 16.9 13.5 12.6 76 2.4 NE 22 33 12 18 1005.6 1005.5 0.0
28/08:30am 16.2 12.8 12.4 78 2.1 NE 22 32 12 17 1005.6 - 0.0
28/08:00am 15.4 13.3 12.3 82 1.7 NE 15 20 8 11 1005.5 - 0.0

Other Formats:

Comma delimited format used in spreadsheet applications
http://www.bom.gov.au/fwo/IDT60801/IDT60801.94953.axf

JavaScript Object Notation format (JSON) in row-major order
http://www.bom.gov.au/fwo/IDT60801/IDT60801.94953.json